Time;durP1;ratioP1;P1;durP2;ratioP2;P2;SDS_P1;SDS_P2;PMS_P1;PMS_P2;Temp;Humidity;BMP_temperature;BMP_pressure;BME280_temperature;BME280_humidity;BME280_pressure;Samples;Min_cycle;Max_cycle;Signal;HPM_P1;HPM_P2
2022/06/26 00:00:03;;;;;;;6.43;1.10;;;;;;;9.78;84.03;99682.38;6218891;23;20036;-77
2022/06/26 00:02:28;;;;;;;8.20;1.27;;;;;;;9.67;83.82;99676.13;6222379;23;20004;-76
2022/06/26 00:04:54;;;;;;;3.97;1.20;;;;;;;9.61;84.55;99667.16;6220282;23;20617;-76
2022/06/26 00:07:22;;;;;;;7.47;1.20;;;;;;;9.86;84.34;99703.66;6193236;23;20001;-76
2022/06/26 00:10:02;;;;;;;3.30;1.02;;;;;;;9.67;83.85;99680.78;6193285;23;20421;-76
2022/06/26 00:12:37;;;;;;;;;;;;;;;;;;;;;
2022/06/26 00:15:03;;;;;;;2.78;0.70;;;;;;;9.49;84.13;99669.38;6221905;23;20338;-74
2022/06/26 00:17:29;;;;;;;3.30;1.23;;;;;;;9.66;84.59;99706.44;6193076;23;20011;-75
2022/06/26 00:19:54;;;;;;;7.85;1.17;;;;;;;9.67;84.30;99708.09;6194852;23;20008;-75
2022/06/26 00:22:20;;;;;;;5.53;1.10;;;;;;;9.65;84.28;99704.81;6169708;23;20014;-72
2022/06/26 00:24:46;;;;;;;4.07;1.00;;;;;;;9.66;84.97;99711.91;6167695;23;20076;-73
2022/06/26 00:27:12;;;;;;;7.63;1.08;;;;;;;9.58;84.69;99705.91;6169083;23;20004;-73
2022/06/26 00:29:37;;;;;;;2.40;0.85;;;;;;;9.58;85.12;99711.38;6192788;23;20000;-72
2022/06/26 00:32:04;;;;;;;6.78;1.20;;;;;;;9.58;84.90;99714.09;6192013;23;20012;-74
2022/06/26 00:34:31;;;;;;;4.82;1.00;;;;;;;9.56;84.96;99716.31;6215638;23;20012;-74
2022/06/26 00:36:57;;;;;;;4.60;1.38;;;;;;;9.57;84.87;99714.38;6217448;23;20016;-73
2022/06/26 00:39:23;;;;;;;5.35;0.70;;;;;;;9.56;85.25;99716.31;6217218;23;19996;-73
2022/06/26 00:41:48;;;;;;;6.20;1.05;;;;;;;9.54;85.14;99713.03;6219995;23;20000;-74
2022/06/26 00:44:16;;;;;;;2.35;0.60;;;;;;;9.40;84.78;99698.31;6194574;23;20021;-74
2022/06/26 00:46:42;;;;;;;8.00;0.82;;;;;;;9.43;84.86;99703.22;6193343;23;20041;-74
2022/06/26 00:49:08;;;;;;;5.90;0.75;;;;;;;9.38;85.63;99701.31;6220817;23;20423;-75
2022/06/26 00:51:40;;;;;;;1.65;0.55;;;;;;;9.38;85.42;99705.97;6192829;23;20425;-74
2022/06/26 00:54:07;;;;;;;7.90;1.17;;;;;;;9.37;85.99;99698.88;6195287;23;20011;-74
2022/06/26 00:56:39;;;;;;;4.95;0.85;;;;;;;9.36;86.08;99697.22;6191574;23;20028;-73
2022/06/26 00:59:05;;;;;;;6.38;1.08;;;;;;;9.39;86.15;99707.59;6218401;23;20016;-74
2022/06/26 01:01:33;;;;;;;5.22;1.10;;;;;;;9.35;86.64;99706.53;6190998;23;20084;-72
2022/06/26 01:03:59;;;;;;;5.30;1.10;;;;;;;9.33;86.78;99697.78;6219203;23;20088;-74
2022/06/26 01:06:24;;;;;;;7.05;0.98;;;;;;;9.38;86.94;99705.97;6192851;23;20015;-73
2022/06/26 01:08:50;;;;;;;5.00;1.30;;;;;;;9.35;86.90;99711.97;6219410;23;20036;-73
2022/06/26 01:11:18;;;;;;;10.45;1.60;;;;;;;9.33;86.73;99697.78;6192624;23;20135;-75
2022/06/26 01:13:49;;;;;;;5.35;1.25;;;;;;;9.35;86.85;99706.53;6193770;23;20542;-74
2022/06/26 01:16:25;;;;;;;3.75;1.15;;;;;;;9.34;87.29;99707.59;6217737;23;20076;-74
2022/06/26 01:18:56;;;;;;;6.22;1.48;;;;;;;9.31;86.84;99691.78;6218984;23;20050;-75
2022/06/26 01:21:23;;;;;;;6.25;1.10;;;;;;;9.32;87.38;99696.97;6218416;23;20016;-74
2022/06/26 01:23:49;;;;;;;5.43;1.17;;;;;;;9.26;87.26;99693.41;6193960;23;20028;-74
2022/06/26 01:26:15;;;;;;;5.13;0.95;;;;;;;9.36;87.45;99699.94;6218991;23;20015;-73
2022/06/26 01:28:41;;;;;;;5.63;1.27;;;;;;;9.36;87.33;99694.50;6193469;23;20032;-74
2022/06/26 01:31:07;;;;;;;11.30;1.45;;;;;;;9.39;87.72;99693.97;6218586;23;20676;-72
2022/06/26 01:33:33;;;;;;;6.00;1.00;;;;;;;9.39;88.05;99696.69;6192773;23;20520;-73
2022/06/26 01:35:59;;;;;;;4.97;1.20;;;;;;;9.37;87.96;99694.22;6220087;23;20004;-72
2022/06/26 01:38:24;;;;;;;8.00;1.58;;;;;;;9.32;88.08;99686.06;6219190;23;20035;-74
2022/06/26 01:40:55;;;;;;;5.70;1.25;;;;;;;9.33;88.04;99689.59;6217086;23;20309;-74
2022/06/26 01:43:41;;;;;;;5.53;1.52;;;;;;;9.31;87.85;99689.88;6219152;23;20008;-75
2022/06/26 01:46:07;;;;;;;5.65;1.10;;;;;;;9.28;87.80;99697.78;6218464;23;20019;-74
2022/06/26 01:48:34;;;;;;;5.60;1.30;;;;;;;9.21;88.45;99685.25;6192506;23;20020;-74
2022/06/26 01:51:06;;;;;;;12.57;1.30;;;;;;;9.23;88.80;99688.53;6143584;23;20021;-74
2022/06/26 01:53:31;;;;;;;2.15;0.90;;;;;;;9.25;88.21;99697.25;6189569;23;20013;-74
2022/06/26 01:55:57;;;;;;;4.57;0.70;;;;;;;9.17;88.30;99689.63;6165090;23;20025;-75
2022/06/26 01:58:25;;;;;;;3.92;0.93;;;;;;;9.17;88.37;99688.78;6193071;23;20055;-74
2022/06/26 02:00:51;;;;;;;2.75;0.80;;;;;;;9.25;88.36;99697.25;6192296;23;20012;-74
2022/06/26 02:03:17;;;;;;;4.63;1.52;;;;;;;9.28;87.96;99692.34;6167166;23;20015;-74
2022/06/26 02:05:48;;;;;;;3.92;0.85;;;;;;;9.32;88.23;99690.69;6218263;23;20004;-73
2022/06/26 02:08:13;;;;;;;3.60;0.98;;;;;;;9.31;88.15;99699.97;6217595;23;20003;-72
2022/06/26 02:13:36;;;;;;;4.10;0.82;;;;;;;9.27;87.60;99696.97;6218527;23;20100;-72
2022/06/26 02:16:28;;;;;;;4.63;0.95;;;;;;;9.21;87.91;99695.34;6193706;23;20004;-71
2022/06/26 02:18:56;;;;;;;4.35;1.33;;;;;;;9.23;88.20;99699.44;6215275;23;20015;-72
2022/06/26 02:21:24;;;;;;;2.22;1.02;;;;;;;9.18;87.92;99704.88;6215929;23;20020;-71
2022/06/26 02:23:51;;;;;;;9.00;1.27;;;;;;;9.18;88.19;99702.16;6192458;23;20005;-72
2022/06/26 02:26:18;;;;;;;8.98;1.27;;;;;;;9.17;87.85;99700.53;6191718;23;20009;-71
2022/06/26 02:28:44;;;;;;;3.17;1.05;;;;;;;9.19;87.99;99703.78;6216815;23;20092;-72
2022/06/26 02:31:10;;;;;;;4.65;0.65;;;;;;;9.20;88.45;99700.00;6165326;23;20036;-72
2022/06/26 02:33:36;;;;;;;6.78;0.95;;;;;;;9.20;87.96;99689.06;6191089;23;20364;-73
2022/06/26 02:36:06;;;;;;;7.40;1.35;;;;;;;9.26;87.98;99704.34;6217845;23;20068;-72
2022/06/26 02:38:35;;;;;;;5.72;1.05;;;;;;;9.16;88.20;99693.44;6191945;23;20005;-71
2022/06/26 02:41:03;;;;;;;3.03;1.20;;;;;;;9.21;88.17;99696.19;6217114;23;20007;-72
2022/06/26 02:43:31;;;;;;;4.85;0.90;;;;;;;9.17;88.54;99695.09;6217389;23;20012;-72
2022/06/26 02:45:59;;;;;;;9.05;1.10;;;;;;;9.19;88.33;99692.88;6188901;23;20155;-72
2022/06/26 02:48:24;;;;;;;5.53;1.23;;;;;;;9.17;88.22;99678.72;6216355;23;20000;-72
2022/06/26 02:51:00;;;;;;;;;;;;;;;;;;;;;
2022/06/26 02:53:26;;;;;;;7.82;1.42;;;;;;;9.31;88.19;99680.88;6217286;23;20087;-72
2022/06/26 02:55:51;;;;;;;9.15;1.38;;;;;;;9.47;87.29;99693.38;6191248;23;20007;-73
2022/06/26 02:58:17;;;;;;;8.15;1.10;;;;;;;9.70;87.58;99696.63;6164596;23;20340;-72
2022/06/26 03:00:42;;;;;;;12.20;1.70;;;;;;;9.89;86.68;99697.63;6217366;23;20001;-73
2022/06/26 03:03:08;;;;;;;11.07;1.80;;;;;;;10.05;85.86;99695.66;6217488;23;20062;-73
2022/06/26 03:05:33;;;;;;;8.45;1.48;;;;;;;10.10;85.89;99689.34;6190989;23;20008;-73
2022/06/26 03:07:59;;;;;;;2.05;0.70;;;;;;;10.09;86.14;99687.69;6166711;23;20028;-73
2022/06/26 03:10:25;;;;;;;8.85;1.33;;;;;;;10.12;86.20;99692.63;6217997;23;20118;-72
2022/06/26 03:12:52;;;;;;;7.25;0.93;;;;;;;10.12;86.81;99709.81;6191167;23;20012;-72
2022/06/26 03:15:18;;;;;;;6.88;1.10;;;;;;;9.99;86.75;99693.19;6214098;23;20016;-72
2022/06/26 03:17:45;;;;;;;3.42;0.68;;;;;;;9.89;87.37;99697.63;6191216;23;20662;-73
2022/06/26 03:20:13;;;;;;;6.35;1.00;;;;;;;9.71;87.62;99704.53;6219183;23;20008;-72
2022/06/26 03:22:38;;;;;;;4.40;1.10;;;;;;;9.64;87.66;99703.16;6218183;23;20028;-72
2022/06/26 03:25:06;;;;;;;2.70;0.98;;;;;;;9.70;88.60;99713.00;6190523;23;20032;-74
2022/06/26 03:27:31;;;;;;;5.78;0.80;;;;;;;9.81;88.34;99714.56;6193292;23;20089;-73
2022/06/26 03:29:57;;;;;;;3.40;0.93;;;;;;;9.91;87.77;99717.25;6193247;23;20378;-72
2022/06/26 03:32:22;;;;;;;3.78;0.80;;;;;;;10.01;87.51;99710.16;6192850;23;20072;-72
2022/06/26 03:34:47;;;;;;;5.22;0.80;;;;;;;10.10;87.59;99722.94;6218190;23;20007;-74
2022/06/26 03:37:16;;;;;;;4.90;1.33;;;;;;;10.13;87.05;99716.09;6168419;23;20013;-73
2022/06/26 03:39:41;;;;;;;1.50;0.60;;;;;;;10.17;86.90;99711.69;6165930;23;20366;-73
2022/06/26 03:42:07;;;;;;;4.38;0.90;;;;;;;10.21;86.93;99717.44;6216459;23;20028;-73
2022/06/26 03:44:32;;;;;;;3.58;0.93;;;;;;;10.20;86.72;99716.59;6192959;23;20017;-73
2022/06/26 03:46:58;;;;;;;4.25;0.90;;;;;;;10.15;86.83;99713.91;6192031;23;20008;-74
2022/06/26 03:49:24;;;;;;;4.93;0.80;;;;;;;10.04;87.55;99717.78;6192243;23;20001;-73
2022/06/26 03:51:50;;;;;;;6.63;1.05;;;;;;;9.96;87.87;99727.38;6219339;23;20017;-72
2022/06/26 03:54:15;;;;;;;4.25;1.08;;;;;;;9.89;88.06;99724.94;6192688;23;20082;-74
2022/06/26 03:56:41;;;;;;;3.78;0.90;;;;;;;9.82;87.75;99726.34;6192445;23;20036;-74
2022/06/26 03:59:06;;;;;;;3.42;0.80;;;;;;;9.81;88.11;99730.97;6219384;23;20008;-73
2022/06/26 04:01:32;;;;;;;8.88;0.93;;;;;;;9.85;88.29;99726.56;6194450;23;20028;-73
2022/06/26 04:03:57;;;;;;;4.40;0.57;;;;;;;9.95;88.94;99732.00;6167919;23;20043;-74
2022/06/26 04:06:23;;;;;;;3.10;0.90;;;;;;;9.98;88.69;99736.09;6192721;23;20018;-73
2022/06/26 04:08:48;;;;;;;9.10;1.50;;;;;;;9.94;88.92;99740.47;6218511;23;20005;-74
2022/06/26 04:11:14;;;;;;;3.05;0.82;;;;;;;9.81;88.79;99733.69;6219760;23;20128;-73
2022/06/26 04:13:40;;;;;;;3.88;0.80;;;;;;;9.78;89.47;99736.97;6193490;23;20295;-74
2022/06/26 04:16:06;;;;;;;3.90;0.90;;;;;;;9.75;89.33;99737.53;6191035;23;20451;-73
2022/06/26 04:18:34;;;;;;;5.07;1.00;;;;;;;9.74;89.83;99741.38;6166663;23;20101;-73
2022/06/26 04:21:02;;;;;;;3.03;0.70;;;;;;;9.61;89.96;99726.38;6216925;23;20011;-74
2022/06/26 04:23:29;;;;;;;6.93;0.88;;;;;;;9.72;90.11;99738.91;6216347;23;20004;-74
2022/06/26 04:25:56;;;;;;;4.50;0.90;;;;;;;9.69;90.26;99735.91;6192723;23;20358;-72
2022/06/26 04:28:21;;;;;;;5.13;1.27;;;;;;;9.79;90.25;99749.53;6216453;23;20432;-73
2022/06/26 04:30:47;;;;;;;3.83;0.90;;;;;;;9.84;90.02;99748.69;6190708;23;20005;-72
2022/06/26 04:33:12;;;;;;;7.30;1.30;;;;;;;9.89;89.57;99751.44;6188233;23;20377;-73
2022/06/26 04:35:37;;;;;;;4.97;1.40;;;;;;;9.87;89.93;99740.78;6168031;23;20019;-74
2022/06/26 04:38:03;;;;;;;2.95;0.98;;;;;;;9.96;89.49;99752.78;6220201;23;20019;-73
2022/06/26 04:40:29;;;;;;;4.40;1.10;;;;;;;10.00;89.51;99754.94;6190408;23;20008;-73
2022/06/26 04:42:55;;;;;;;6.43;1.02;;;;;;;10.07;89.50;99760.94;6193079;23;20004;-72
2022/06/26 04:45:22;;;;;;;4.78;0.95;;;;;;;10.04;89.12;99743.16;6218629;23;20035;-72
2022/06/26 04:47:48;;;;;;;2.92;0.90;;;;;;;10.15;89.05;99752.16;6192183;23;20004;-72
2022/06/26 04:50:13;;;;;;;4.28;1.02;;;;;;;10.21;88.83;99756.50;6167006;23;20013;-73
2022/06/26 04:52:43;;;;;;;3.78;1.02;;;;;;;10.23;88.73;99748.81;6191836;23;20032;-74
2022/06/26 04:55:08;;;;;;;12.27;1.15;;;;;;;10.29;88.38;99753.19;6167091;23;20129;-75
2022/06/26 04:57:34;;;;;;;5.78;1.30;;;;;;;10.42;88.07;99756.44;6217131;23;20001;-75
2022/06/26 04:59:59;;;;;;;8.10;1.17;;;;;;;10.52;88.02;99750.91;6168600;23;20013;-74
2022/06/26 05:02:25;;;;;;;9.43;1.52;;;;;;;10.62;87.24;99755.50;6215534;23;20015;-74
2022/06/26 05:04:56;;;;;;;7.68;0.80;;;;;;;10.63;87.61;99733.34;6190989;23;20119;-74
2022/06/26 05:07:21;;;;;;;10.23;1.35;;;;;;;10.82;86.38;99760.03;6216683;23;20328;-73
2022/06/26 05:09:47;;;;;;;7.57;1.38;;;;;;;10.91;86.32;99752.84;6191112;23;20005;-74
2022/06/26 05:12:12;;;;;;;12.77;1.33;;;;;;;10.98;86.03;99757.97;6217693;23;21207;-72
2022/06/26 05:14:38;;;;;;;6.05;1.40;;;;;;;11.04;85.50;99762.34;6219034;23;20009;-72
2022/06/26 05:17:04;;;;;;;9.00;1.38;;;;;;;11.14;85.16;99777.84;6191600;23;20409;-73
2022/06/26 05:19:29;;;;;;;13.80;1.42;;;;;;;11.11;85.23;99767.47;6190360;23;20004;-73
2022/06/26 05:22:02;;;;;;;11.00;1.48;;;;;;;11.12;84.94;99763.63;6216615;23;20015;-73
2022/06/26 05:24:28;;;;;;;6.78;1.20;;;;;;;11.16;84.33;99768.25;6216589;23;20011;-74
2022/06/26 05:26:53;;;;;;;11.55;1.33;;;;;;;11.37;84.22;99776.28;6191430;23;20087;-74
2022/06/26 05:29:18;;;;;;;13.63;1.45;;;;;;;11.46;83.81;99790.16;6192726;23;20015;-74
2022/06/26 05:31:44;;;;;;;3.90;1.10;;;;;;;11.50;84.45;99792.03;6191228;23;20043;-74
2022/06/26 05:34:09;;;;;;;9.68;1.52;;;;;;;11.52;84.01;99786.28;6167556;23;20060;-73
2022/06/26 05:36:35;;;;;;;10.13;1.75;;;;;;;11.59;83.73;99789.50;6217308;23;20083;-72
2022/06/26 05:39:00;;;;;;;5.00;0.80;;;;;;;11.67;83.64;99796.28;6190832;23;20024;-73
2022/06/26 05:41:25;;;;;;;7.20;1.08;;;;;;;11.73;83.32;99791.59;6190847;23;20035;-73
2022/06/26 05:43:51;;;;;;;7.78;1.00;;;;;;;11.76;82.90;99788.25;6189647;23;20115;-73
2022/06/26 05:46:16;;;;;;;7.53;1.25;;;;;;;11.83;82.94;99794.22;6165993;23;20031;-71
2022/06/26 05:48:42;;;;;;;4.70;0.93;;;;;;;11.90;82.54;99805.66;6190004;23;20059;-73
2022/06/26 05:51:08;;;;;;;8.75;1.33;;;;;;;11.94;83.00;99809.47;6166149;23;20025;-72
2022/06/26 05:53:33;;;;;;;8.10;1.02;;;;;;;12.04;82.92;99805.81;6217652;23;20297;-73
2022/06/26 05:55:59;;;;;;;5.28;1.45;;;;;;;12.15;82.89;99811.97;6192410;23;20074;-74
2022/06/26 05:58:24;;;;;;;14.95;1.65;;;;;;;12.44;81.19;99811.94;6217896;23;20056;-72
2022/06/26 06:00:50;;;;;;;11.18;1.75;;;;;;;12.87;79.93;99820.13;6166201;23;20458;-73
2022/06/26 06:03:15;;;;;;;10.23;1.25;;;;;;;12.95;78.87;99815.06;6191499;23;20012;-72
2022/06/26 06:05:46;;;;;;;6.32;1.27;;;;;;;12.79;78.56;99798.84;6193178;23;20005;-73
2022/06/26 06:08:15;;;;;;;11.52;1.60;;;;;;;12.80;79.14;99821.59;6217624;23;20012;-74
2022/06/26 06:10:43;;;;;;;4.80;1.00;;;;;;;12.86;78.90;99825.91;6166331;23;20008;-73
2022/06/26 06:13:08;;;;;;;11.77;1.25;;;;;;;12.89;78.61;99819.81;6192110;23;20471;-74
2022/06/26 06:15:34;;;;;;;9.52;1.48;;;;;;;12.97;78.39;99827.38;6217492;23;20083;-74
2022/06/26 06:17:59;;;;;;;8.95;1.25;;;;;;;13.01;78.36;99831.19;6191055;23;20292;-73
2022/06/26 06:20:25;;;;;;;6.32;1.40;;;;;;;13.14;77.92;99840.59;6190145;23;20119;-73
2022/06/26 06:23:00;;;;;;;8.60;1.45;;;;;;;13.28;76.52;99833.22;6188945;23;20063;-71
2022/06/26 06:25:50;;;;;;;13.32;1.52;;;;;;;13.31;76.13;99848.28;6214711;23;20008;-75
2022/06/26 06:28:32;;;;;;;8.40;1.45;;;;;;;13.29;76.43;99845.03;6192360;23;20046;-75
2022/06/26 06:30:57;;;;;;;11.93;1.90;;;;;;;13.24;76.16;99837.72;6193493;23;20009;-74
2022/06/26 06:33:31;;;;;;;12.35;1.58;;;;;;;13.18;76.21;99816.09;6193524;23;20474;-75
2022/06/26 06:35:57;;;;;;;10.40;2.08;;;;;;;13.42;75.75;99832.53;6195894;23;20080;-76
2022/06/26 06:38:29;;;;;;;7.70;1.13;;;;;;;13.86;73.62;99838.66;6217810;23;20019;-74
2022/06/26 06:40:57;;;;;;;8.35;1.25;;;;;;;14.01;73.00;99815.56;6166437;23;20009;-74
2022/06/26 06:43:25;;;;;;;20.48;2.20;;;;;;;14.67;69.84;99846.44;6217064;23;20005;-78
2022/06/26 06:45:51;;;;;;;9.45;1.20;;;;;;;15.05;69.14;99842.59;6217032;23;20030;-75
2022/06/26 06:48:16;;;;;;;23.05;1.85;;;;;;;15.34;67.82;99820.16;6191323;23;20000;-73
2022/06/26 06:50:47;;;;;;;5.30;1.25;;;;;;;15.62;67.71;99842.88;6185377;23;20005;-75
2022/06/26 06:53:12;;;;;;;8.95;1.45;;;;;;;15.71;65.57;99849.28;6160900;23;19997;-74
2022/06/26 06:55:37;;;;;;;12.85;1.70;;;;;;;15.60;66.22;99839.63;6187243;23;20009;-74
2022/06/26 06:58:03;;;;;;;7.60;1.35;;;;;;;15.39;66.09;99847.59;6160100;23;20538;-74
2022/06/26 07:00:29;;;;;;;7.07;1.20;;;;;;;15.13;66.69;99870.22;6187276;23;20019;-74
2022/06/26 07:03:02;;;;;;;7.45;1.50;;;;;;;14.91;67.30;99854.47;6188253;23;20044;-73
2022/06/26 07:05:28;;;;;;;4.55;1.25;;;;;;;14.76;67.26;99839.09;6161262;23;20056;-74
2022/06/26 07:07:56;;;;;;;9.38;1.88;;;;;;;14.80;67.54;99842.84;6139900;23;20008;-75
2022/06/26 07:10:23;;;;;;;8.90;1.55;;;;;;;15.11;66.65;99853.19;6187515;23;20495;-75
2022/06/26 07:12:55;;;;;;;10.13;1.48;;;;;;;15.28;64.90;99841.50;6161840;23;19997;-75
2022/06/26 07:15:24;;;;;;;10.77;1.55;;;;;;;15.24;64.18;99862.53;6188837;23;20027;-75
2022/06/26 07:17:49;;;;;;;10.73;1.45;;;;;;;15.45;64.45;99856.53;6160734;23;20008;-75
2022/06/26 07:20:15;;;;;;;8.07;1.30;;;;;;;15.49;64.37;99869.38;6189174;23;20008;-74
2022/06/26 07:22:41;;;;;;;3.67;0.90;;;;;;;15.31;63.76;99851.09;6160928;23;20121;-75
2022/06/26 07:25:07;;;;;;;14.43;1.55;;;;;;;15.33;63.51;99860.66;6162766;23;20012;-75
2022/06/26 07:27:32;;;;;;;12.13;1.55;;;;;;;15.34;63.02;99855.97;6162554;23;20013;-76
2022/06/26 07:29:58;;;;;;;6.60;1.38;;;;;;;15.31;63.18;99856.59;6186474;23;20100;-75
2022/06/26 07:32:27;;;;;;;12.20;1.42;;;;;;;15.32;64.04;99856.28;6164170;23;20405;-74
2022/06/26 07:35:00;;;;;;;6.82;1.45;;;;;;;15.51;64.01;99856.09;6162497;23;20416;-75
2022/06/26 07:37:26;;;;;;;8.25;1.30;;;;;;;15.44;63.35;99855.72;6164519;23;20009;-76
2022/06/26 07:39:51;;;;;;;6.88;1.08;;;;;;;15.46;63.50;99885.72;6114838;23;20425;-75
2022/06/26 07:42:29;;;;;;;8.68;1.30;;;;;;;15.44;63.63;99866.75;6161522;23;20031;-76
2022/06/26 07:44:54;;;;;;;5.82;1.02;;;;;;;15.64;62.15;99903.22;6189243;23;20024;-75
2022/06/26 07:47:23;;;;;;;8.10;1.70;;;;;;;15.57;62.04;99865.06;6136996;23;20008;-75
2022/06/26 07:49:48;;;;;;;9.68;1.48;;;;;;;15.59;61.09;99876.56;6188140;23;20008;-77
2022/06/26 07:52:26;;;;;;;;;;;;;;;;;;;;;
2022/06/26 07:54:54;;;;;;;8.90;1.42;;;;;;;15.75;61.62;99885.28;6220165;23;20073;-75
2022/06/26 07:57:31;;;;;;;11.30;1.60;;;;;;;16.00;60.25;99858.22;6219885;23;20000;-76
2022/06/26 08:00:06;;;;;;;;;;;;;;;;;;;;;
2022/06/26 08:02:32;;;;;;;14.15;2.80;;;;;;;17.12;55.73;99878.25;6218162;23;20080;-74
2022/06/26 08:04:59;;;;;;;18.80;1.55;;;;;;;17.19;55.68;99884.13;6189692;23;20008;-75
2022/06/26 08:07:25;;;;;;;7.78;1.75;;;;;;;17.01;56.29;99893.50;6191644;23;20021;-75
2022/06/26 08:09:50;;;;;;;15.23;2.10;;;;;;;16.81;57.69;99881.91;6141997;23;20493;-76
2022/06/26 08:12:16;;;;;;;8.35;1.48;;;;;;;16.85;58.11;99899.47;6192218;23;20095;-75
2022/06/26 08:14:42;;;;;;;7.03;1.40;;;;;;;16.54;59.19;99872.75;6191441;23;20331;-75
2022/06/26 08:17:08;;;;;;;8.65;1.23;;;;;;;16.17;60.23;99876.81;6167232;23;20328;-74
2022/06/26 08:19:34;;;;;;;9.25;1.58;;;;;;;15.82;61.31;99899.47;6219986;23;20328;-75
2022/06/26 08:22:02;;;;;;;10.30;1.67;;;;;;;15.68;61.49;99888.50;6192926;23;20030;-75
2022/06/26 08:24:32;;;;;;;13.93;1.60;;;;;;;15.52;61.76;99877.03;6194691;23;20004;-75
2022/06/26 08:26:59;;;;;;;13.00;2.17;;;;;;;15.84;61.85;99896.41;6190914;23;20012;-75
2022/06/26 08:29:24;;;;;;;12.13;1.75;;;;;;;16.33;60.89;99893.75;6214809;23;20076;-74
2022/06/26 08:31:50;;;;;;;11.57;1.52;;;;;;;16.90;57.70;99893.00;6217812;23;20404;-74
2022/06/26 08:34:19;;;;;;;9.65;1.92;;;;;;;17.15;57.56;99910.75;6193289;23;20312;-75
2022/06/26 08:36:45;;;;;;;9.00;2.22;;;;;;;17.61;56.94;99903.78;6219811;23;20012;-74
2022/06/26 08:39:10;;;;;;;7.97;2.08;;;;;;;17.90;56.62;99901.50;6192339;23;20012;-74
2022/06/26 08:41:43;;;;;;;9.35;1.75;;;;;;;17.97;53.42;99904.59;6191327;23;20011;-74
2022/06/26 08:44:13;;;;;;;10.73;1.30;;;;;;;17.97;53.10;99901.81;6192909;23;20022;-76
2022/06/26 08:47:02;;;;;;;10.57;1.50;;;;;;;17.83;54.13;99913.06;6193978;23;20008;-76
2022/06/26 08:49:33;;;;;;;16.45;2.22;;;;;;;17.59;55.23;99892.22;6171625;23;20009;-76
2022/06/26 08:51:59;;;;;;;10.38;1.70;;;;;;;17.71;55.67;99905.41;6180573;23;20552;-75
2022/06/26 08:54:32;;;;;;;6.90;2.55;;;;;;;18.02;54.66;99887.00;6162012;23;20084;-76
2022/06/26 08:57:00;;;;;;;15.27;1.70;;;;;;;18.29;53.04;99917.03;6184561;23;20008;-74
2022/06/26 08:59:27;;;;;;;4.13;1.05;;;;;;;18.45;52.01;99905.41;6157629;23;20013;-74
2022/06/26 09:02:01;;;;;;;7.78;1.63;;;;;;;18.33;52.04;99913.63;6159545;23;20020;-75
2022/06/26 09:04:26;;;;;;;9.93;1.55;;;;;;;18.54;51.04;99925.56;6160884;23;20012;-74
2022/06/26 09:06:52;;;;;;;5.82;1.42;;;;;;;18.51;49.01;99915.16;6160938;23;20096;-74
2022/06/26 09:09:19;;;;;;;4.95;1.30;;;;;;;18.77;49.19;99911.47;6136331;23;20009;-74
2022/06/26 09:11:47;;;;;;;6.95;1.42;;;;;;;18.42;48.11;99928.22;6184979;23;20012;-74
2022/06/26 09:14:14;;;;;;;7.30;1.63;;;;;;;18.29;49.58;99903.19;6161702;23;20547;-75
2022/06/26 09:16:45;;;;;;;9.10;1.60;;;;;;;18.47;48.59;99936.34;6158593;23;20340;-72
2022/06/26 09:19:18;;;;;;;14.48;1.73;;;;;;;18.36;48.58;99924.03;6187123;23;20040;-76
2022/06/26 09:21:45;;;;;;;9.27;1.50;;;;;;;18.26;50.10;99937.06;6187725;23;20007;-76
2022/06/26 09:24:13;;;;;;;9.50;1.45;;;;;;;18.17;50.71;99939.03;6162124;23;20017;-75
2022/06/26 09:26:39;;;;;;;6.82;1.25;;;;;;;18.18;50.20;99945.38;6161501;23;20001;-75
2022/06/26 09:29:13;;;;;;;8.07;1.20;;;;;;;18.39;49.25;99934.44;6161891;23;20012;-75
2022/06/26 09:31:39;;;;;;;8.73;1.42;;;;;;;18.69;47.61;99987.91;6187201;23;20001;-75
2022/06/26 09:34:06;;;;;;;4.93;1.25;;;;;;;18.94;47.12;99933.56;6189240;23;20107;-75
2022/06/26 09:36:32;;;;;;;6.07;1.98;;;;;;;19.27;45.97;99935.63;6161621;23;20020;-74
2022/06/26 09:38:58;;;;;;;6.95;1.50;;;;;;;19.82;44.58;99935.75;6161734;23;20005;-76
2022/06/26 09:41:34;;;;;;;5.75;1.27;;;;;;;20.02;44.81;99946.00;6136945;23;20011;-74
2022/06/26 09:44:00;;;;;;;5.82;1.30;;;;;;;19.76;44.97;99945.41;6160350;23;20016;-75
2022/06/26 09:46:43;;;;;;;7.05;1.50;;;;;;;19.25;45.91;99954.56;6159233;23;20028;-74
2022/06/26 09:49:20;;;;;;;;;;;;;;;;;;;;;
2022/06/26 09:51:49;;;;;;;9.88;1.30;;;;;;;19.79;45.54;99956.66;6172673;23;20100;-75
2022/06/26 09:54:19;;;;;;;7.90;1.30;;;;;;;20.01;44.45;99938.81;6190046;23;20043;-75
2022/06/26 09:56:45;;;;;;;14.30;1.58;;;;;;;20.13;43.37;99954.69;6191169;23;20036;-76
2022/06/26 09:59:44;;;;;;;;;;;;;;;;;;;;;
2022/06/26 10:07:52;;;;;;;5.43;1.20;;;;;;;20.23;42.17;99959.00;6220896;23;20430;-73
2022/06/26 10:10:30;;;;;;;;;;;;;;;;;;;;;
2022/06/26 10:12:59;;;;;;;4.68;1.17;;;;;;;20.79;40.95;99963.28;6219566;23;20020;-76
2022/06/26 10:15:29;;;;;;;5.03;1.10;;;;;;;22.41;38.29;99980.06;6191797;23;20005;-74
2022/06/26 10:18:10;;;;;;;7.93;1.45;;;;;;;23.34;36.68;99986.38;6193203;23;20069;-74
2022/06/26 10:20:39;;;;;;;9.57;1.95;;;;;;;24.06;35.21;99962.81;6192256;23;20053;-75
2022/06/26 10:23:28;;;;;;;7.40;1.35;;;;;;;26.51;30.73;99952.41;6218287;23;20004;-75
2022/06/26 10:25:58;;;;;;;6.13;1.30;;;;;;;28.22;27.88;99978.38;6194798;23;21107;-74
2022/06/26 10:28:38;;;;;;;7.75;1.30;;;;;;;29.22;25.98;99974.88;6192379;23;20004;-75
2022/06/26 10:31:14;;;;;;;5.90;1.52;;;;;;;29.73;25.43;99961.44;6218677;23;20495;-74
2022/06/26 10:33:47;;;;;;;10.85;1.15;;;;;;;29.63;24.32;99959.47;6217652;23;20104;-74
2022/06/26 10:36:22;;;;;;;6.40;1.03;;;;;;;29.93;24.48;99964.63;6219304;23;20004;-73
2022/06/26 10:38:48;;;;;;;5.55;1.23;;;;;;;29.56;24.02;99980.00;6218251;23;20031;-75
2022/06/26 10:44:09;;;;;;;6.18;1.17;;;;;;;24.07;31.80;99956.03;6217545;23;20458;-74
2022/06/26 10:46:36;;;;;;;3.53;1.05;;;;;;;24.92;31.69;99983.13;6214871;23;20076;-75
2022/06/26 10:49:07;;;;;;;8.35;1.55;;;;;;;27.60;27.92;99982.94;6217591;23;20424;-73
2022/06/26 10:51:55;;;;;;;4.82;1.73;;;;;;;30.75;24.24;99972.97;6190691;23;20000;-73
2022/06/26 10:54:28;;;;;;;4.03;1.13;;;;;;;33.10;20.66;99965.97;6219494;23;20004;-75
2022/06/26 10:57:30;;;;;;;4.72;1.20;;;;;;;32.29;20.27;99981.03;6217005;23;20039;-74
2022/06/26 10:59:59;;;;;;;7.15;1.83;;;;;;;31.47;21.55;99966.69;6217127;23;20075;-74
2022/06/26 11:02:43;;;;;;;6.03;1.27;;;;;;;30.95;21.86;99992.97;6188296;23;20001;-76
2022/06/26 11:05:16;;;;;;;8.88;2.75;;;;;;;28.41;23.99;99967.97;6214325;23;20004;-76
2022/06/26 11:07:46;;;;;;;;;;;;;;;26.89;27.10;99989.63;6191106;23;20005;-75
2022/06/26 11:10:20;;;;;;;5.35;1.13;;;;;;;24.97;30.55;99980.03;6187500;23;19903;-76
2022/06/26 11:12:47;;;;;;;8.02;1.35;;;;;;;23.30;33.67;100002.22;6189972;23;20008;-75
2022/06/26 11:15:33;;;;;;;8.52;1.50;;;;;;;22.13;35.56;99980.88;6189852;23;20455;-75
2022/06/26 11:18:04;;;;;;;4.57;1.40;;;;;;;21.21;37.92;99991.66;6185746;23;20008;-75
2022/06/26 11:20:47;;;;;;;8.55;1.27;;;;;;;20.91;38.95;99968.88;6189209;23;20009;-75
2022/06/26 11:23:34;;;;;;;5.70;1.48;;;;;;;21.21;39.10;99982.50;6209502;23;20000;-74
2022/06/26 11:26:06;;;;;;;9.48;1.92;;;;;;;21.17;39.31;99978.81;6190197;23;20385;-75
2022/06/26 11:28:36;;;;;;;9.60;1.52;;;;;;;20.86;40.58;99985.75;6191128;23;20008;-74
2022/06/26 11:31:03;;;;;;;7.60;1.30;;;;;;;20.35;41.71;99978.44;6191651;23;20000;-73
2022/06/26 11:33:31;;;;;;;7.47;1.52;;;;;;;20.77;41.67;99994.19;6191505;23;20103;-74
2022/06/26 11:36:08;;;;;;;6.40;1.38;;;;;;;22.39;38.56;99990.78;6191515;23;20005;-76
2022/06/26 11:38:48;;;;;;;8.75;1.42;;;;;;;22.60;35.35;99992.50;6214319;23;20028;-75
2022/06/26 11:41:14;;;;;;;7.00;1.23;;;;;;;22.17;36.91;99969.06;6216885;23;20074;-72
2022/06/26 11:43:54;;;;;;;7.00;1.35;;;;;;;23.30;35.21;99991.88;6217420;23;19996;-75
2022/06/26 11:46:21;;;;;;;9.60;1.75;;;;;;;22.70;36.16;99989.19;6192643;23;20024;-76
2022/06/26 11:49:11;;;;;;;4.18;1.20;;;;;;;24.21;34.87;100001.03;6188266;23;20005;-76
2022/06/26 11:51:37;;;;;;;7.30;1.33;;;;;;;28.73;27.59;99988.53;6180058;23;20040;-73
2022/06/26 11:54:05;;;;;;;8.88;1.20;;;;;;;30.30;24.52;99993.41;6188322;23;20015;-75
2022/06/26 11:56:31;;;;;;;6.28;1.20;;;;;;;28.52;26.71;100000.53;6215945;23;20004;-76
2022/06/26 11:58:58;;;;;;;8.68;1.42;;;;;;;28.98;25.36;100001.78;6188123;23;20399;-75
2022/06/26 12:01:33;;;;;;;3.92;0.93;;;;;;;27.51;27.17;99990.88;6219723;23;20000;-77